createdAt,value
2019-02-05T00:00:46.006Z,72.05
2019-02-05T00:01:45.998Z,71.53
2019-02-05T00:02:45.979Z,71.53
2019-02-05T00:03:45.987Z,72.05
2019-02-05T00:04:45.966Z,72.25
2019-02-05T00:05:45.955Z,72.77
2019-02-05T00:06:45.965Z,72.56
2019-02-05T00:07:45.936Z,72.60
2019-02-05T00:08:45.937Z,72.08
2019-02-05T00:09:45.908Z,72.80
2019-02-05T00:10:45.907Z,72.77
2019-02-05T00:11:45.909Z,73.32
2019-02-05T00:12:45.875Z,72.70
2019-02-05T00:13:45.861Z,72.60
2019-02-05T00:14:45.861Z,72.80
2019-02-05T00:15:45.851Z,73.32
2019-02-05T00:16:45.859Z,73.11
2019-02-05T00:17:45.830Z,73.32
2019-02-05T00:18:45.817Z,72.36
2019-02-05T00:19:45.800Z,72.67
2019-02-05T00:20:45.799Z,73.28
2019-02-05T00:21:45.800Z,72.77
2019-02-05T00:22:45.782Z,73.28
2019-02-05T00:23:45.765Z,73.84
2019-02-05T00:24:45.761Z,73.70
2019-02-05T00:25:45.744Z,73.94
2019-02-05T00:26:45.754Z,74.36
2019-02-05T00:27:45.926Z,73.63
2019-02-05T00:28:45.705Z,73.43
2019-02-05T00:29:45.690Z,74.05
2019-02-05T00:30:45.685Z,73.84
2019-02-05T00:31:45.691Z,74.22
2019-02-05T00:32:45.661Z,74.46
2019-02-05T00:33:45.649Z,74.88
2019-02-05T00:34:45.640Z,74.26
2019-02-05T00:35:45.617Z,74.88
2019-02-05T00:36:45.631Z,75.09
2019-02-05T00:37:45.613Z,75.09
2019-02-05T00:38:45.603Z,75.92
2019-02-05T00:39:45.582Z,77.51
2019-02-05T00:40:45.565Z,77.72
2019-02-05T00:41:45.581Z,78.34
2019-02-05T00:42:45.559Z,78.86
2019-02-05T00:43:45.543Z,79.17
2019-02-05T00:44:45.537Z,79.17
2019-02-05T00:45:45.566Z,79.38
2019-02-05T00:46:45.526Z,79.17
2019-02-05T00:47:45.519Z,78.96
2019-02-05T00:48:45.489Z,79.06
2019-02-05T00:49:45.478Z,79.27
2019-02-05T00:50:45.474Z,79.58
2019-02-05T00:51:45.473Z,80.62
2019-02-05T00:52:45.447Z,80.41
2019-02-05T00:53:45.430Z,81.07
2019-02-05T00:54:45.425Z,81.38
2019-02-05T00:55:45.411Z,82.53
2019-02-05T00:56:45.419Z,82.11
2019-02-05T00:57:45.402Z,83.04
2019-02-05T00:58:45.370Z,83.04
2019-02-05T00:59:45.367Z,82.53
2019-02-05T01:00:45.347Z,82.94
2019-02-05T01:01:45.370Z,83.29
2019-02-05T01:02:45.341Z,84.01
2019-02-05T01:03:45.319Z,84.33
2019-02-05T01:04:45.313Z,84.33
2019-02-05T01:05:45.315Z,84.64
2019-02-05T01:06:45.311Z,84.95
2019-02-05T01:07:45.286Z,84.64
2019-02-05T01:08:45.264Z,84.95
2019-02-05T01:09:45.260Z,85.88
2019-02-05T01:10:45.238Z,85.36
2019-02-05T01:11:45.262Z,85.47
2019-02-05T01:12:45.234Z,85.10
2019-02-05T01:13:45.214Z,85.99
2019-02-05T01:14:45.208Z,85.68
2019-02-05T01:15:45.199Z,85.47
2019-02-05T01:16:45.202Z,85.05
2019-02-05T01:17:45.169Z,85.26
2019-02-05T01:18:45.165Z,85.57
2019-02-05T01:19:45.150Z,85.68
2019-02-05T01:20:45.130Z,85.57
2019-02-05T01:21:45.152Z,84.95
2019-02-05T01:22:45.136Z,85.78
2019-02-05T01:23:45.111Z,85.47
2019-02-05T01:24:45.099Z,85.26
2019-02-05T01:25:45.080Z,84.43
2019-02-05T01:26:45.103Z,85.05
2019-02-05T01:27:45.057Z,85.26
2019-02-05T01:28:45.048Z,87.03
2019-02-05T01:29:45.048Z,85.78
2019-02-05T01:31:54.238Z,86.82
2019-02-05T01:32:55.198Z,86.93
2019-02-05T01:33:55.189Z,86.86
2019-02-05T01:34:55.188Z,86.86
2019-02-05T01:35:55.172Z,87.17
2019-02-05T01:36:55.189Z,87.07
2019-02-05T01:37:55.167Z,86.86
2019-02-05T01:38:55.147Z,87.59
2019-02-05T01:39:55.139Z,87.27
2019-02-05T01:40:55.126Z,88.00
2019-02-05T01:41:55.143Z,87.90
2019-02-05T01:42:55.103Z,88.42
2019-02-05T01:43:55.091Z,88.73
2019-02-05T01:44:55.075Z,89.04
2019-02-05T01:45:55.059Z,88.94
2019-02-05T01:46:55.068Z,88.56
2019-02-05T01:47:55.053Z,89.81
2019-02-05T01:48:55.025Z,90.12
2019-02-05T01:49:55.023Z,89.92
2019-02-05T01:50:55.007Z,90.44
2019-02-05T01:51:55.002Z,91.06
2019-02-05T01:52:54.997Z,90.85
2019-02-05T01:53:54.980Z,90.85
2019-02-05T01:54:54.966Z,90.58
2019-02-05T01:55:54.967Z,91.37
2019-02-05T01:56:54.949Z,92.35
2019-02-05T01:57:54.959Z,92.03
2019-02-05T01:58:54.927Z,92.66
2019-02-05T01:59:54.915Z,93.07
2019-02-05T02:00:54.907Z,92.97
2019-02-05T02:01:54.900Z,93.07
2019-02-05T02:02:54.902Z,93.60
2019-02-05T02:03:54.873Z,93.49
2019-02-05T02:04:54.866Z,93.54
2019-02-05T02:05:54.856Z,94.26
2019-02-05T02:06:54.840Z,94.64
2019-02-05T02:07:54.845Z,94.43
2019-02-05T02:08:54.820Z,95.26
2019-02-05T02:09:54.803Z,94.99
2019-02-05T02:10:54.803Z,94.84
2019-02-05T02:11:54.781Z,94.84
2019-02-05T02:12:54.925Z,95.30
2019-02-05T02:13:54.778Z,95.72
2019-02-05T02:14:55.467Z,95.47
2019-02-05T02:15:54.735Z,95.47
2019-02-05T02:16:54.734Z,95.67
2019-02-05T02:17:54.748Z,95.51
2019-02-05T02:18:54.723Z,95.36
2019-02-05T02:19:54.689Z,95.51
2019-02-05T02:20:54.691Z,95.20
2019-02-05T02:21:54.676Z,95.51
2019-02-05T02:22:54.684Z,95.62
2019-02-05T02:23:54.664Z,95.62
2019-02-05T02:24:54.645Z,95.51
2019-02-05T02:25:54.638Z,95.62
2019-02-05T02:26:54.616Z,95.62
2019-02-05T02:27:54.631Z,95.20
2019-02-05T02:28:54.595Z,95.62
2019-02-05T02:29:54.587Z,95.40
2019-02-05T02:30:54.581Z,95.20
2019-02-05T02:31:54.570Z,95.72
2019-02-05T02:32:54.597Z,95.83
2019-02-05T02:33:54.548Z,95.62
2019-02-05T02:34:54.535Z,95.72
2019-02-05T02:35:54.543Z,95.40
2019-02-05T02:36:54.516Z,95.62
2019-02-05T02:37:54.515Z,95.83
2019-02-05T02:38:54.510Z,95.83
2019-02-05T02:39:54.485Z,95.83
2019-02-05T02:40:54.481Z,95.51
2019-02-05T02:41:54.461Z,96.14
2019-02-05T02:42:54.447Z,96.34
2019-02-05T02:43:54.453Z,96.03
2019-02-05T02:44:54.433Z,96.14
2019-02-05T02:45:54.415Z,95.62
2019-02-05T02:46:54.406Z,95.51
2019-02-05T02:47:54.397Z,95.51
2019-02-05T02:48:54.394Z,95.40
2019-02-05T02:49:54.376Z,95.83
2019-02-05T02:50:54.357Z,95.72
2019-02-05T02:51:54.355Z,95.72
2019-02-05T02:52:54.330Z,95.51
2019-02-05T02:53:54.351Z,95.62
2019-02-05T02:54:54.324Z,95.93
2019-02-05T02:55:54.308Z,95.93
2019-02-05T02:57:04.510Z,95.40
2019-02-05T02:57:54.284Z,95.83
2019-02-05T02:58:54.285Z,95.72
2019-02-05T02:59:54.267Z,95.93
2019-02-05T03:00:54.253Z,95.62
2019-02-05T03:01:54.248Z,95.62
2019-02-05T03:02:54.236Z,96.14
2019-02-05T03:03:54.243Z,96.03
2019-02-05T03:04:54.208Z,96.66
2019-02-05T03:05:54.197Z,96.24
2019-02-05T03:06:54.193Z,96.14
2019-02-05T03:07:54.180Z,96.34
2019-02-05T03:08:54.194Z,96.66
2019-02-05T03:09:54.154Z,96.34
2019-02-05T03:10:54.143Z,96.51
2019-02-05T03:11:54.123Z,96.24
2019-02-05T03:12:54.120Z,96.09
2019-02-05T03:13:54.135Z,96.34
2019-02-05T03:14:54.099Z,96.14
2019-02-05T03:15:54.087Z,96.14
2019-02-05T03:16:54.076Z,96.03
2019-02-05T03:17:54.068Z,96.24
2019-02-05T03:18:54.081Z,96.09
2019-02-05T03:19:54.054Z,96.20
2019-02-05T03:20:54.039Z,96.30
2019-02-05T03:21:54.014Z,96.45
2019-02-05T03:22:54.027Z,96.14
2019-02-05T03:23:54.005Z,96.30
2019-02-05T03:24:54.006Z,96.51
2019-02-05T03:25:53.983Z,96.14
2019-02-05T03:26:53.973Z,95.36
2019-02-05T03:27:54.391Z,95.78
2019-02-05T03:28:53.962Z,95.78
2019-02-05T03:29:53.966Z,95.89
2019-02-05T03:30:53.977Z,95.89
2019-02-05T03:33:03.131Z,95.67
2019-02-05T03:34:04.100Z,95.36
2019-02-05T03:35:04.111Z,95.67
2019-02-05T03:36:04.083Z,95.57
2019-02-05T03:37:04.074Z,95.67
2019-02-05T03:38:04.066Z,95.57
2019-02-05T03:39:04.051Z,95.36
2019-02-05T03:40:04.042Z,95.57
2019-02-05T03:41:04.035Z,95.36
2019-02-05T03:42:04.013Z,95.15
2019-02-05T03:43:04.000Z,95.78
2019-02-05T03:44:04.013Z,95.30
2019-02-05T03:45:03.979Z,95.78
2019-02-05T03:46:03.988Z,95.57
2019-02-05T03:47:03.964Z,95.47
2019-02-05T03:48:03.962Z,95.57
2019-02-05T03:49:03.936Z,95.72
2019-02-05T03:50:03.944Z,95.62
2019-02-05T03:51:03.939Z,95.57
2019-02-05T03:52:03.922Z,95.36
2019-02-05T03:53:03.903Z,95.40
2019-02-05T03:54:03.889Z,95.78
2019-02-05T03:55:03.885Z,95.78
2019-02-05T03:56:03.895Z,95.83
2019-02-05T03:57:03.867Z,95.15
2019-02-05T03:58:03.835Z,95.47
2019-02-05T03:59:03.828Z,95.62
2019-02-05T04:00:03.825Z,95.51
2019-02-05T04:01:03.828Z,95.78
2019-02-05T04:02:03.817Z,95.78
2019-02-05T04:03:03.784Z,95.15
2019-02-05T04:04:03.785Z,95.99
2019-02-05T04:05:03.764Z,95.83
2019-02-05T04:06:03.774Z,95.36
2019-02-05T04:07:03.745Z,95.57
2019-02-05T04:08:03.738Z,95.26
2019-02-05T04:09:03.730Z,95.15
2019-02-05T04:10:03.720Z,94.95
2019-02-05T04:11:03.721Z,95.05
2019-02-05T04:12:03.700Z,94.95
2019-02-05T04:13:03.698Z,95.05
2019-02-05T04:14:03.674Z,94.74
2019-02-05T04:15:03.660Z,94.74
2019-02-05T04:16:03.671Z,95.05
2019-02-05T04:17:03.645Z,95.15
2019-02-05T04:18:03.624Z,95.05
2019-02-05T04:19:03.623Z,94.84
2019-02-05T04:20:03.608Z,94.95
2019-02-05T04:21:03.614Z,94.95
2019-02-05T04:22:03.587Z,94.84
2019-02-05T04:23:03.565Z,95.05
2019-02-05T04:24:03.570Z,94.74
2019-02-05T04:25:04.354Z,94.64
2019-02-05T04:26:03.559Z,94.70
2019-02-05T04:27:03.540Z,94.64
2019-02-05T04:28:03.526Z,94.43
2019-02-05T04:29:03.548Z,94.22
2019-02-05T04:30:03.529Z,94.53
2019-02-05T04:31:03.512Z,94.64
2019-02-05T04:32:03.479Z,94.64
2019-02-05T04:33:03.465Z,94.84
2019-02-05T04:34:03.461Z,94.43
2019-02-05T04:35:03.441Z,94.49
2019-02-05T04:36:03.455Z,94.18
2019-02-05T04:37:03.420Z,94.53
2019-02-05T04:38:03.408Z,93.87
2019-02-05T04:39:03.409Z,93.60
2019-02-05T04:40:03.398Z,93.87
2019-02-05T04:41:03.420Z,94.59
2019-02-05T04:42:03.369Z,94.53
2019-02-05T04:43:03.363Z,94.70
2019-02-05T04:44:03.350Z,94.49
2019-02-05T04:45:03.329Z,94.59
2019-02-05T04:46:03.365Z,94.38
2019-02-05T04:47:03.318Z,94.38
2019-02-05T04:48:03.308Z,94.59
2019-02-05T04:49:03.299Z,94.38
2019-02-05T04:50:03.279Z,94.28
2019-02-05T04:51:03.291Z,94.74
2019-02-05T04:52:03.263Z,94.59
2019-02-05T04:53:03.247Z,94.59
2019-02-05T04:54:03.246Z,94.38
2019-02-05T04:55:03.238Z,94.38
2019-02-05T04:56:03.271Z,94.38
2019-02-05T04:57:03.221Z,94.90
2019-02-05T04:58:03.187Z,94.49
2019-02-05T04:59:03.191Z,93.76
2019-02-05T05:00:03.229Z,93.66
2019-02-05T05:01:03.181Z,93.66
2019-02-05T05:02:03.161Z,94.59
2019-02-05T05:03:03.149Z,93.55
2019-02-05T05:04:03.128Z,93.97
2019-02-05T05:05:03.131Z,93.97
2019-02-05T05:06:03.133Z,94.07
2019-02-05T05:07:03.116Z,93.87
2019-02-05T05:08:03.090Z,93.87
2019-02-05T05:09:03.086Z,93.66
2019-02-05T05:10:03.074Z,93.76
2019-02-05T05:11:03.081Z,93.55
2019-02-05T05:12:03.046Z,93.24
2019-02-05T05:13:03.059Z,93.76
2019-02-05T05:14:03.021Z,93.97
2019-02-05T05:15:03.008Z,93.55
2019-02-05T05:16:03.019Z,93.97
2019-02-05T05:17:02.999Z,94.07
2019-02-05T05:18:02.980Z,93.87
2019-02-05T05:19:02.987Z,93.87
2019-02-05T05:20:02.956Z,93.55
2019-02-05T05:21:02.942Z,93.76
2019-02-05T05:22:02.983Z,93.97
2019-02-05T05:23:02.937Z,93.76
2019-02-05T05:24:02.922Z,93.97
2019-02-05T05:25:02.929Z,93.76
2019-02-05T05:26:02.895Z,93.76
2019-02-05T05:27:02.928Z,94.55
2019-02-05T05:28:10.084Z,94.28
2019-02-05T05:29:02.885Z,94.28
2019-02-05T05:30:02.921Z,94.07
2019-02-05T05:31:02.846Z,94.18
2019-02-05T05:32:02.861Z,93.97
2019-02-05T05:34:12.004Z,93.97
2019-02-05T05:35:12.993Z,93.76
2019-02-05T05:36:12.978Z,93.97
2019-02-05T05:37:13.005Z,93.97
2019-02-05T05:38:12.966Z,93.76
2019-02-05T05:39:12.949Z,94.28
2019-02-05T05:40:12.948Z,94.59
2019-02-05T05:41:12.931Z,93.76
2019-02-05T05:42:12.948Z,94.38
2019-02-05T05:43:12.928Z,94.24
2019-02-05T05:44:12.901Z,94.49
2019-02-05T05:45:12.891Z,94.59
2019-02-05T05:46:12.891Z,93.66
2019-02-05T05:47:12.888Z,94.76
2019-02-05T05:48:12.859Z,94.65
2019-02-05T05:49:12.838Z,94.38
2019-02-05T05:50:12.839Z,94.59
2019-02-05T05:51:12.817Z,94.70
2019-02-05T05:52:12.844Z,95.01
2019-02-05T05:53:12.816Z,94.86
2019-02-05T05:54:12.791Z,94.76
2019-02-05T05:55:12.778Z,94.80
2019-02-05T05:56:12.769Z,94.96
2019-02-05T05:57:12.790Z,94.96
2019-02-05T05:58:22.269Z,94.59
2019-02-05T05:59:12.730Z,94.96
2019-02-05T06:00:12.730Z,95.07
2019-02-05T06:01:12.724Z,95.01
2019-02-05T06:02:12.736Z,95.01
2019-02-05T06:03:12.714Z,94.86
2019-02-05T06:04:12.685Z,95.07
2019-02-05T06:05:12.670Z,94.76
2019-02-05T06:06:12.684Z,94.96
2019-02-05T06:07:12.675Z,95.28
2019-02-05T06:08:12.650Z,95.07
2019-02-05T06:09:12.638Z,95.01
2019-02-05T06:10:12.626Z,95.28
2019-02-05T06:11:12.614Z,95.07
2019-02-05T06:12:12.612Z,95.32
2019-02-05T06:13:12.588Z,95.69
2019-02-05T06:14:12.572Z,95.48
2019-02-05T06:15:12.562Z,95.42
2019-02-05T06:16:12.547Z,95.69
2019-02-05T06:17:12.671Z,95.28
2019-02-05T06:18:12.528Z,95.17
2019-02-05T06:19:12.616Z,95.28
2019-02-05T06:20:12.505Z,95.48
2019-02-05T06:21:13.784Z,95.84
2019-02-05T06:22:12.503Z,95.38
2019-02-05T06:23:12.487Z,95.53
2019-02-05T06:24:12.468Z,95.48
2019-02-05T06:25:12.466Z,95.63
2019-02-05T06:26:12.434Z,95.38
2019-02-05T06:27:12.455Z,95.94
2019-02-05T06:28:12.441Z,96.00
2019-02-05T06:29:12.403Z,96.04
2019-02-05T06:30:12.392Z,96.11
2019-02-05T06:31:12.385Z,96.11
2019-02-05T06:32:12.400Z,96.21
2019-02-05T06:33:12.374Z,95.79
2019-02-05T06:34:12.374Z,96.31
2019-02-05T06:35:13.288Z,96.11
2019-02-05T06:36:12.326Z,96.00
2019-02-05T06:37:12.348Z,96.52
2019-02-05T06:38:12.314Z,96.31
2019-02-05T06:39:12.313Z,96.52
2019-02-05T06:40:12.288Z,97.04
2019-02-05T06:41:12.276Z,96.62
2019-02-05T06:42:12.285Z,97.56
2019-02-05T06:43:12.251Z,97.50
2019-02-05T06:44:12.258Z,97.09
2019-02-05T06:45:12.274Z,97.71
2019-02-05T06:46:12.237Z,97.19
2019-02-05T06:47:12.230Z,97.30
2019-02-05T06:48:12.197Z,98.33
2019-02-05T06:49:12.250Z,97.98
2019-02-05T06:50:12.310Z,97.71
2019-02-05T06:51:12.189Z,98.02
2019-02-05T06:52:12.277Z,98.13
2019-02-05T06:53:12.152Z,98.44
2019-02-05T06:54:12.201Z,98.44
2019-02-05T06:55:12.433Z,98.13
2019-02-05T06:56:12.134Z,98.33
2019-02-05T06:57:12.116Z,98.44
2019-02-05T06:58:12.088Z,98.65
2019-02-05T06:59:12.114Z,98.75
2019-02-05T07:00:12.082Z,98.75
2019-02-05T07:01:12.066Z,98.54
2019-02-05T07:02:12.250Z,98.85
2019-02-05T07:03:12.124Z,99.06
2019-02-05T07:04:12.090Z,98.65
2019-02-05T07:05:12.028Z,99.48
2019-02-05T07:06:12.138Z,98.85
2019-02-05T07:07:12.004Z,98.75
2019-02-05T07:08:12.469Z,98.75
2019-02-05T07:09:12.039Z,99.58
2019-02-05T07:10:11.967Z,99.27
2019-02-05T07:11:11.957Z,99.37
2019-02-05T07:12:11.950Z,98.96
2019-02-05T07:13:11.947Z,99.37
2019-02-05T07:14:11.995Z,99.27
2019-02-05T07:15:11.903Z,98.96
2019-02-05T07:16:11.936Z,98.85
2019-02-05T07:17:12.063Z,99.27
2019-02-05T07:18:11.910Z,99.27
2019-02-05T07:19:11.881Z,99.16
2019-02-05T07:20:11.846Z,99.27
2019-02-05T07:21:11.864Z,99.37
2019-02-05T07:22:11.848Z,99.58
2019-02-05T07:23:11.847Z,99.27
2019-02-05T07:24:11.835Z,98.85
2019-02-05T07:25:11.813Z,99.27
2019-02-05T07:26:12.502Z,99.06
2019-02-05T07:27:11.775Z,98.75
2019-02-05T07:28:11.788Z,99.27
2019-02-05T07:29:11.754Z,99.58
2019-02-05T07:30:11.745Z,99.27
2019-02-05T07:31:11.744Z,99.37
2019-02-05T07:32:11.751Z,99.27
2019-02-05T07:33:11.746Z,99.37
2019-02-05T07:35:21.670Z,98.96
2019-02-05T07:36:22.987Z,99.02
2019-02-05T07:37:22.542Z,98.96
2019-02-05T07:38:23.008Z,99.16
2019-02-05T07:39:22.504Z,99.12
2019-02-05T07:40:22.599Z,99.06
2019-02-05T07:41:22.548Z,99.37
2019-02-05T07:42:22.491Z,99.16
2019-02-05T07:43:22.588Z,98.81
2019-02-05T07:44:22.470Z,99.22
2019-02-05T07:45:22.499Z,99.22
2019-02-05T07:46:23.174Z,99.43
2019-02-05T07:47:23.486Z,99.43
2019-02-05T07:48:22.420Z,99.22
2019-02-05T07:49:22.468Z,99.33
2019-02-05T07:50:22.381Z,99.12
2019-02-05T07:51:22.529Z,98.81
2019-02-05T07:52:22.352Z,98.91
2019-02-05T07:53:22.362Z,99.02
2019-02-05T07:54:22.387Z,98.81
2019-02-05T07:55:22.332Z,98.81
2019-02-05T07:56:22.425Z,98.71
2019-02-05T07:57:22.474Z,99.54
2019-02-05T07:58:22.318Z,98.81
2019-02-05T07:59:22.402Z,98.91
2019-02-05T08:00:22.363Z,98.81
2019-02-05T08:01:22.265Z,98.60
2019-02-05T08:02:22.258Z,98.81
2019-02-05T08:03:22.271Z,98.50
2019-02-05T08:04:22.239Z,98.55
2019-02-05T08:05:22.239Z,98.66
2019-02-05T08:06:22.276Z,98.81
2019-02-05T08:07:22.198Z,98.03
2019-02-05T08:08:22.283Z,98.08
2019-02-05T08:09:22.204Z,98.08
2019-02-05T08:10:22.201Z,98.24
2019-02-05T08:11:22.151Z,98.14
2019-02-05T08:12:22.150Z,98.19
2019-02-05T08:13:22.168Z,98.08
2019-02-05T08:14:22.126Z,98.19
2019-02-05T08:15:22.121Z,98.19
2019-02-05T08:16:22.128Z,98.14
2019-02-05T08:17:22.110Z,98.50
2019-02-05T08:18:22.248Z,98.39
2019-02-05T08:19:22.089Z,98.24
2019-02-05T08:20:22.081Z,98.45
2019-02-05T08:21:22.065Z,98.66
2019-02-05T08:22:22.090Z,97.93
2019-02-05T08:23:22.150Z,98.14
2019-02-05T08:24:22.029Z,97.93
2019-02-05T08:25:22.012Z,98.08
2019-02-05T08:26:22.060Z,98.60
2019-02-05T08:27:21.995Z,98.50
2019-02-05T08:28:21.966Z,98.35
2019-02-05T08:29:22.046Z,98.35
2019-02-05T08:30:21.985Z,98.45
2019-02-05T08:31:21.963Z,98.35
2019-02-05T08:32:21.964Z,98.14
2019-02-05T08:33:22.071Z,98.35
2019-02-05T08:34:22.056Z,98.55
2019-02-05T08:35:22.001Z,97.93
2019-02-05T08:36:21.954Z,98.35
2019-02-05T08:37:21.898Z,98.55
2019-02-05T08:38:21.895Z,98.39
2019-02-05T08:39:21.884Z,98.97
2019-02-05T08:40:21.919Z,98.76
2019-02-05T08:41:21.862Z,98.66
2019-02-05T08:42:21.906Z,98.76
2019-02-05T08:43:21.814Z,98.97
2019-02-05T08:44:21.828Z,98.76
2019-02-05T08:45:21.817Z,98.97
2019-02-05T08:46:21.774Z,99.49
2019-02-05T08:47:21.810Z,98.55
2019-02-05T08:48:21.925Z,99.07
2019-02-05T08:49:21.746Z,99.59
2019-02-05T08:50:21.762Z,98.76
2019-02-05T08:51:21.736Z,99.59
2019-02-05T08:52:21.723Z,99.18
2019-02-05T08:53:21.728Z,98.86
2019-02-05T08:54:21.716Z,99.18
2019-02-05T08:55:21.901Z,99.28
2019-02-05T08:56:21.996Z,98.86
2019-02-05T08:57:21.664Z,99.07
2019-02-05T08:58:30.562Z,99.49
2019-02-05T08:59:21.639Z,99.38
2019-02-05T09:00:21.662Z,99.28
2019-02-05T09:01:21.635Z,99.38
2019-02-05T09:02:21.606Z,99.59
2019-02-05T09:03:21.605Z,99.99
2019-02-05T09:04:21.586Z,99.99
2019-02-05T09:05:22.710Z,99.80
2019-02-05T09:06:21.625Z,99.99
2019-02-05T09:07:21.616Z,99.91
2019-02-05T09:08:21.740Z,99.91
2019-02-05T09:09:21.695Z,99.80
2019-02-05T09:10:21.581Z,99.80
2019-02-05T09:11:21.927Z,99.70
2019-02-05T09:12:21.808Z,99.70
2019-02-05T09:13:21.833Z,99.80
2019-02-05T09:14:21.497Z,99.70
2019-02-05T09:15:29.082Z,99.38
2019-02-05T09:16:21.515Z,99.85
2019-02-05T09:17:24.259Z,99.80
2019-02-05T09:18:21.478Z,99.70
2019-02-05T09:19:21.440Z,99.91
2019-02-05T09:20:21.566Z,99.65
2019-02-05T09:21:21.976Z,99.99
2019-02-05T09:22:21.416Z,99.99
2019-02-05T09:23:21.441Z,99.80
2019-02-05T09:24:21.559Z,99.80
2019-02-05T09:25:21.538Z,99.91
2019-02-05T09:26:21.432Z,99.99
2019-02-05T09:27:21.356Z,99.85
2019-02-05T09:28:21.425Z,99.99
2019-02-05T09:29:21.327Z,99.80
2019-02-05T09:30:21.543Z,99.99
2019-02-05T09:31:21.427Z,99.70
2019-02-05T09:32:21.314Z,99.38
2019-02-05T09:33:21.348Z,99.91
2019-02-05T09:34:21.410Z,99.70
2019-02-05T09:36:30.500Z,99.99
2019-02-05T09:37:31.552Z,99.38
2019-02-05T09:38:31.482Z,98.66
2019-02-05T09:39:31.426Z,99.07
2019-02-05T09:40:31.418Z,98.97
2019-02-05T09:41:31.461Z,99.28
2019-02-05T09:42:31.405Z,98.86
2019-02-05T09:43:31.387Z,98.76
2019-02-05T09:44:31.644Z,98.82
2019-02-05T09:45:31.366Z,98.66
2019-02-05T09:46:31.431Z,99.07
2019-02-05T09:47:31.349Z,99.49
2019-02-05T09:48:31.327Z,98.55
2019-02-05T09:49:31.309Z,98.76
2019-02-05T09:50:43.711Z,98.41
2019-02-05T09:51:31.313Z,98.14
2019-02-05T09:52:31.298Z,98.10
2019-02-05T09:53:31.297Z,98.10
2019-02-05T09:54:31.276Z,98.20
2019-02-05T09:55:31.245Z,98.10
2019-02-05T09:56:32.225Z,98.51
2019-02-05T09:57:31.716Z,97.78
2019-02-05T09:58:31.261Z,97.78
2019-02-05T09:59:31.257Z,97.89
2019-02-05T10:00:31.738Z,97.78
2019-02-05T10:01:31.692Z,97.89
2019-02-05T10:02:31.899Z,97.68
2019-02-05T10:03:31.930Z,97.68
2019-02-05T10:04:31.182Z,97.53
2019-02-05T10:05:31.240Z,97.99
2019-02-05T10:06:31.158Z,97.74
2019-02-05T10:07:31.631Z,97.89
2019-02-05T10:08:31.201Z,98.30
2019-02-05T10:09:31.240Z,98.05
2019-02-05T10:10:31.082Z,97.99
2019-02-05T10:11:31.213Z,97.74
2019-02-05T10:12:31.112Z,97.85
2019-02-05T10:13:31.061Z,96.81
2019-02-05T10:14:31.056Z,96.91
2019-02-05T10:15:31.111Z,97.02
2019-02-05T10:16:31.018Z,97.12
2019-02-05T10:17:31.002Z,97.27
2019-02-05T10:18:31.000Z,96.91
2019-02-05T10:19:30.983Z,97.16
2019-02-05T10:20:30.969Z,97.12
2019-02-05T10:21:31.021Z,97.22
2019-02-05T10:22:30.951Z,97.02
2019-02-05T10:23:31.010Z,97.12
2019-02-05T10:24:30.953Z,97.12
2019-02-05T10:25:30.948Z,97.12
2019-02-05T10:26:30.913Z,96.76
2019-02-05T10:27:30.900Z,96.81
2019-02-05T10:28:30.918Z,96.81
2019-02-05T10:29:30.879Z,97.12
2019-02-05T10:30:30.968Z,96.81
2019-02-05T10:31:30.862Z,96.70
2019-02-05T10:32:30.846Z,96.81
2019-02-05T10:33:30.852Z,97.12
2019-02-05T10:34:34.091Z,97.02
2019-02-05T10:35:30.882Z,96.81
2019-02-05T10:36:30.809Z,96.81
2019-02-05T10:37:30.850Z,97.22
2019-02-05T10:38:30.792Z,97.12
2019-02-05T10:39:30.770Z,96.60
2019-02-05T10:40:30.758Z,96.81
2019-02-05T10:41:30.746Z,96.39
2019-02-05T10:42:30.727Z,96.50
2019-02-05T10:43:30.744Z,96.60
2019-02-05T10:44:30.713Z,96.50
2019-02-05T10:45:30.709Z,96.08
2019-02-05T10:46:30.712Z,95.98
2019-02-05T10:47:30.680Z,95.98
2019-02-05T10:48:30.707Z,95.98
2019-02-05T10:49:30.691Z,96.19
2019-02-05T10:50:30.642Z,96.08
2019-02-05T10:51:30.672Z,96.29
2019-02-05T10:52:30.932Z,95.46
2019-02-05T10:53:30.644Z,95.36
2019-02-05T10:54:30.641Z,95.46
2019-02-05T10:55:30.660Z,95.67
2019-02-05T10:56:30.606Z,95.98
2019-02-05T10:57:30.629Z,95.25
2019-02-05T10:58:30.585Z,95.46
2019-02-05T10:59:30.649Z,95.77
2019-02-05T11:00:30.536Z,95.98
2019-02-05T11:01:30.562Z,95.25
2019-02-05T11:02:30.536Z,95.15
2019-02-05T11:03:30.534Z,95.56
2019-02-05T11:04:30.663Z,95.25
2019-02-05T11:05:30.489Z,95.15
2019-02-05T11:06:30.487Z,95.15
2019-02-05T11:07:30.509Z,95.56
2019-02-05T11:08:30.466Z,95.98
2019-02-05T11:09:30.500Z,95.67
2019-02-05T11:10:30.490Z,95.67
2019-02-05T11:11:30.660Z,95.36
2019-02-05T11:12:30.458Z,95.36
2019-02-05T11:13:30.635Z,95.15
2019-02-05T11:14:30.477Z,94.84
2019-02-05T11:15:30.382Z,94.63
2019-02-05T11:16:30.397Z,95.04
2019-02-05T11:17:30.349Z,94.84
2019-02-05T11:18:30.358Z,94.63
2019-02-05T11:19:30.336Z,94.94
2019-02-05T11:20:30.314Z,94.53
2019-02-05T11:21:30.314Z,95.04
2019-02-05T11:22:30.298Z,94.84
2019-02-05T11:23:31.227Z,94.63
2019-02-05T11:24:30.882Z,95.29
2019-02-05T11:25:30.253Z,95.29
2019-02-05T11:26:30.305Z,95.61
2019-02-05T11:27:30.247Z,95.36
2019-02-05T11:28:30.237Z,95.77
2019-02-05T11:29:30.423Z,95.71
2019-02-05T11:30:30.253Z,94.84
2019-02-05T11:31:30.208Z,95.15
2019-02-05T11:32:30.199Z,94.78
2019-02-05T11:33:30.369Z,95.04
2019-02-05T11:34:30.236Z,94.63
2019-02-05T11:35:30.261Z,94.84
2019-02-05T11:37:39.376Z,94.84
2019-02-05T11:38:40.334Z,94.84
2019-02-05T11:39:40.706Z,94.84
2019-02-05T11:40:40.348Z,94.21
2019-02-05T11:41:40.306Z,94.32
2019-02-05T11:42:40.352Z,94.21
2019-02-05T11:43:40.373Z,94.42
2019-02-05T11:44:40.321Z,94.42
2019-02-05T11:45:40.288Z,94.42
2019-02-05T11:46:40.371Z,94.63
2019-02-05T11:47:40.347Z,94.84
2019-02-05T11:48:40.347Z,94.73
2019-02-05T11:49:40.339Z,94.42
2019-02-05T11:50:40.312Z,95.04
2019-02-05T11:51:40.180Z,94.73
2019-02-05T11:52:40.184Z,94.94
2019-02-05T11:53:40.176Z,95.77
2019-02-05T11:54:40.238Z,95.09
2019-02-05T11:55:40.156Z,95.25
2019-02-05T11:56:40.175Z,95.67
2019-02-05T11:57:40.193Z,94.84
2019-02-05T11:58:40.119Z,94.94
2019-02-05T11:59:40.142Z,94.84
2019-02-05T12:00:40.191Z,95.56
2019-02-05T12:01:40.111Z,95.25
2019-02-05T12:02:40.066Z,94.84
2019-02-05T12:03:40.086Z,94.73
2019-02-05T12:04:40.075Z,95.15
2019-02-05T12:05:40.065Z,95.15
2019-02-05T12:06:40.057Z,94.94
2019-02-05T12:07:40.030Z,94.84
2019-02-05T12:08:40.059Z,94.84
2019-02-05T12:09:39.988Z,94.63
2019-02-05T12:10:40.058Z,94.94
2019-02-05T12:11:39.994Z,94.84
2019-02-05T12:12:40.005Z,94.73
2019-02-05T12:13:39.964Z,94.73
2019-02-05T12:14:39.977Z,94.42
2019-02-05T12:15:40.038Z,94.84
2019-02-05T12:16:40.000Z,94.84
2019-02-05T12:17:39.988Z,94.63
2019-02-05T12:18:39.908Z,94.63
2019-02-05T12:19:39.916Z,94.63
2019-02-05T12:20:39.939Z,94.94
2019-02-05T12:21:39.887Z,95.04
2019-02-05T12:22:39.994Z,95.36
2019-02-05T12:23:39.844Z,95.25
2019-02-05T12:24:39.851Z,94.84
2019-02-05T12:25:39.876Z,94.42
2019-02-05T12:26:39.836Z,95.04
2019-02-05T12:27:39.809Z,94.84
2019-02-05T12:28:39.815Z,95.56
2019-02-05T12:29:39.795Z,95.25
2019-02-05T12:30:44.870Z,95.77
2019-02-05T12:31:39.813Z,95.15
2019-02-05T12:32:39.762Z,94.84
2019-02-05T12:33:39.796Z,94.94
2019-02-05T12:34:39.719Z,94.73
2019-02-05T12:35:39.741Z,94.84
2019-02-05T12:36:39.723Z,94.84
2019-02-05T12:37:39.695Z,94.79
2019-02-05T12:38:39.671Z,94.27
2019-02-05T12:39:39.673Z,94.11
2019-02-05T12:40:39.678Z,94.11
2019-02-05T12:41:39.653Z,94.84
2019-02-05T12:42:39.636Z,94.21
2019-02-05T12:43:39.653Z,94.21
2019-02-05T12:44:39.614Z,94.21
2019-02-05T12:45:39.649Z,94.21
2019-02-05T12:46:39.606Z,94.21
2019-02-05T12:47:39.606Z,94.42
2019-02-05T12:48:39.579Z,94.42
2019-02-05T12:49:39.571Z,93.49
2019-02-05T12:50:39.578Z,94.21
2019-02-05T12:51:39.559Z,94.32
2019-02-05T12:52:39.566Z,94.32
2019-02-05T12:53:39.527Z,94.63
2019-02-05T12:54:39.502Z,93.59
2019-02-05T12:55:39.520Z,94.06
2019-02-05T12:56:39.514Z,93.59
2019-02-05T12:57:39.470Z,94.21
2019-02-05T12:58:39.488Z,94.21
2019-02-05T12:59:39.482Z,95.04